createdAt,value
2022-08-07T00:01:43.345Z,15.77
2022-08-07T00:06:29.594Z,15.66
2022-08-07T00:11:47.985Z,15.77
2022-08-07T00:16:58.257Z,15.79
2022-08-07T00:22:01.984Z,15.64
2022-08-07T00:27:09.221Z,15.63
2022-08-07T00:32:14.613Z,15.63
2022-08-07T00:37:18.834Z,15.61
2022-08-07T00:42:29.177Z,15.67
2022-08-07T00:48:18.259Z,15.51
2022-08-07T00:52:56.735Z,15.45
2022-08-07T00:57:59.441Z,15.34
2022-08-07T01:03:03.458Z,15.28
2022-08-07T01:08:09.009Z,15.13
2022-08-07T01:13:12.093Z,15.06
2022-08-07T01:18:19.638Z,15.13
2022-08-07T01:23:34.646Z,15.06
2022-08-07T01:28:45.930Z,15.02
2022-08-07T01:33:55.995Z,15.08
2022-08-07T01:39:00.506Z,15.00
2022-08-07T01:44:04.865Z,15.13
2022-08-07T01:49:08.240Z,15.05
2022-08-07T01:54:33.018Z,15.04
2022-08-07T01:59:58.597Z,14.93
2022-08-07T02:05:04.949Z,14.86
2022-08-07T02:10:09.479Z,14.69
2022-08-07T02:15:23.612Z,14.55
2022-08-07T02:20:31.114Z,14.53
2022-08-07T02:26:31.973Z,14.33
2022-08-07T02:31:10.373Z,14.24
2022-08-07T02:36:29.163Z,14.25
2022-08-07T02:41:37.147Z,14.08
2022-08-07T02:46:46.799Z,14.05
2022-08-07T02:51:58.523Z,14.03
2022-08-07T02:57:02.749Z,13.99
2022-08-07T03:02:10.416Z,13.80
2022-08-07T03:07:15.274Z,13.75
2022-08-07T03:12:22.586Z,13.80
2022-08-07T03:17:36.402Z,13.78
2022-08-07T03:22:58.596Z,13.70
2022-08-07T03:28:36.889Z,13.70
2022-08-07T03:33:32.114Z,13.75
2022-08-07T03:38:44.140Z,13.62
2022-08-07T03:43:57.163Z,13.64
2022-08-07T03:49:02.784Z,13.77
2022-08-07T03:54:36.096Z,13.72
2022-08-07T03:59:33.143Z,13.71
2022-08-07T04:04:36.611Z,13.60
2022-08-07T04:09:45.079Z,13.66
2022-08-07T04:14:54.018Z,13.67
2022-08-07T04:19:59.752Z,13.63
2022-08-07T04:25:11.889Z,13.65
2022-08-07T04:30:55.120Z,13.68
2022-08-07T04:35:59.297Z,13.62
2022-08-07T04:41:02.581Z,13.78
2022-08-07T04:46:25.754Z,13.86
2022-08-07T04:51:49.284Z,13.63
2022-08-07T04:58:15.001Z,13.62
2022-08-07T05:02:48.132Z,13.59
2022-08-07T05:07:58.840Z,13.70
2022-08-07T05:13:10.004Z,13.71
2022-08-07T05:18:32.620Z,13.64
2022-08-07T05:23:38.899Z,13.89
2022-08-07T05:28:48.748Z,13.92
2022-08-07T05:34:04.311Z,13.88
2022-08-07T05:40:06.551Z,13.97
2022-08-07T05:44:35.817Z,13.90
2022-08-07T05:49:40.781Z,13.92
2022-08-07T05:54:55.345Z,13.91
2022-08-07T06:00:02.543Z,14.13
2022-08-07T06:05:10.718Z,14.26
2022-08-07T06:10:15.456Z,14.39
2022-08-07T06:15:20.829Z,14.58
2022-08-07T06:20:25.207Z,14.70
2022-08-07T06:25:34.871Z,14.70
2022-08-07T06:30:45.427Z,14.80
2022-08-07T06:36:12.201Z,14.89
2022-08-07T06:42:00.372Z,15.03
2022-08-07T06:46:53.809Z,15.27
2022-08-07T06:52:13.521Z,15.76
2022-08-07T06:57:16.700Z,15.95
2022-08-07T07:02:53.304Z,16.02
2022-08-07T07:08:18.628Z,16.30
2022-08-07T07:19:55.312Z,16.85
2022-08-07T07:26:34.133Z,17.21
2022-08-07T07:31:47.516Z,17.04
2022-08-07T07:37:22.152Z,17.94
2022-08-07T07:54:38.780Z,18.65
2022-08-07T08:00:29.684Z,18.37
2022-08-07T08:05:54.527Z,18.83
2022-08-07T08:11:00.734Z,19.02
2022-08-07T08:16:06.032Z,19.62
2022-08-07T08:21:55.420Z,20.41
2022-08-07T08:27:12.937Z,21.00
2022-08-07T08:32:25.039Z,20.36
2022-08-07T08:38:01.186Z,21.02
2022-08-07T08:43:18.811Z,21.22
2022-08-07T08:48:45.879Z,21.95
2022-08-07T08:54:05.500Z,21.44
2022-08-07T08:59:21.651Z,22.38
2022-08-07T09:04:28.848Z,22.17
2022-08-07T09:09:36.819Z,22.51
2022-08-07T09:14:50.697Z,22.56
2022-08-07T09:20:35.976Z,22.62
2022-08-07T09:26:05.774Z,22.85
2022-08-07T09:31:48.486Z,22.77
2022-08-07T09:37:48.504Z,24.24
2022-08-07T09:43:21.267Z,23.92
2022-08-07T09:50:01.197Z,23.75
2022-08-07T09:56:03.631Z,22.67
2022-08-07T10:01:55.897Z,22.70
2022-08-07T10:07:31.694Z,23.65
2022-08-07T10:12:53.288Z,23.96
2022-08-07T10:36:18.624Z,24.27
2022-08-07T10:41:47.325Z,24.27
2022-08-07T10:47:11.990Z,24.62
2022-08-07T10:52:31.842Z,24.34
2022-08-07T10:57:44.429Z,24.49
2022-08-07T11:03:12.739Z,24.29
2022-08-07T11:08:16.410Z,24.04
2022-08-07T11:14:45.308Z,22.83
2022-08-07T11:19:29.408Z,24.81
2022-08-07T11:24:52.129Z,25.69
2022-08-07T11:30:18.770Z,26.60
2022-08-07T11:35:26.783Z,26.68
2022-08-07T11:40:35.266Z,27.00
2022-08-07T11:45:55.020Z,26.06
2022-08-07T11:51:45.089Z,25.39
2022-08-07T11:56:48.757Z,25.98
2022-08-07T12:02:17.678Z,26.18
2022-08-07T12:07:39.184Z,26.85
2022-08-07T12:12:52.518Z,27.09
2022-08-07T12:18:08.168Z,26.12
2022-08-07T12:24:06.176Z,27.12
2022-08-07T12:28:49.711Z,27.16
2022-08-07T12:34:01.716Z,27.12
2022-08-07T12:39:36.919Z,26.65
2022-08-07T12:44:35.841Z,25.46
2022-08-07T12:49:50.938Z,25.45
2022-08-07T12:55:02.818Z,26.30
2022-08-07T13:00:16.396Z,24.85
2022-08-07T13:06:04.686Z,25.29
2022-08-07T13:11:26.760Z,25.39
2022-08-07T13:16:46.744Z,25.74
2022-08-07T13:22:02.087Z,25.79
2022-08-07T13:27:20.454Z,25.80
2022-08-07T13:32:37.478Z,25.26
2022-08-07T13:37:58.729Z,25.32
2022-08-07T13:43:06.661Z,25.29
2022-08-07T13:48:27.585Z,24.96
2022-08-07T13:53:59.786Z,25.96
2022-08-07T13:59:02.229Z,25.81
2022-08-07T14:04:10.780Z,25.49
2022-08-07T14:10:02.375Z,25.49
2022-08-07T14:15:07.624Z,24.90
2022-08-07T14:20:40.393Z,25.52
2022-08-07T14:26:50.606Z,24.94
2022-08-07T14:32:24.963Z,25.34
2022-08-07T14:43:58.470Z,24.13
2022-08-07T14:49:57.630Z,24.45
2022-08-07T14:55:55.767Z,24.19
2022-08-07T15:01:42.697Z,24.05
2022-08-07T15:07:47.485Z,23.90
2022-08-07T15:13:25.999Z,23.26
2022-08-07T15:19:07.262Z,23.08
2022-08-07T15:25:14.183Z,22.58
2022-08-07T15:30:24.937Z,23.01
2022-08-07T15:46:57.378Z,22.49
2022-08-07T15:52:51.764Z,22.40
2022-08-07T16:03:46.300Z,22.45
2022-08-07T16:08:45.785Z,22.64
2022-08-07T16:14:00.238Z,22.69
2022-08-07T16:19:16.135Z,22.02
2022-08-07T16:24:34.475Z,22.08
2022-08-07T16:30:09.779Z,21.95
2022-08-07T16:35:51.767Z,21.72
2022-08-07T16:41:01.479Z,21.61
2022-08-07T16:52:01.614Z,20.93
2022-08-07T16:58:00.849Z,21.15
2022-08-07T17:02:56.542Z,20.60
2022-08-07T17:08:09.252Z,20.69
2022-08-07T17:13:20.929Z,20.65
2022-08-07T17:18:30.799Z,20.44
2022-08-07T17:23:52.695Z,20.20
2022-08-07T17:28:55.583Z,20.15
2022-08-07T17:34:33.082Z,20.07
2022-08-07T17:39:57.607Z,19.92
2022-08-07T17:45:15.051Z,19.85
2022-08-07T17:50:19.903Z,19.78
2022-08-07T17:56:00.426Z,19.60
2022-08-07T18:00:52.602Z,19.48
2022-08-07T18:06:33.336Z,19.22
2022-08-07T18:12:16.379Z,19.11
2022-08-07T18:18:46.012Z,18.92
2022-08-07T18:22:58.306Z,18.74
2022-08-07T18:28:35.269Z,18.52
2022-08-07T18:33:59.005Z,18.37
2022-08-07T18:40:07.791Z,18.21
2022-08-07T18:50:45.902Z,17.85
2022-08-07T18:56:17.510Z,17.77
2022-08-07T19:02:32.372Z,17.74
2022-08-07T19:07:16.168Z,17.54
2022-08-07T19:12:35.209Z,17.50
2022-08-07T19:18:07.859Z,17.32
2022-08-07T19:23:58.135Z,17.19
2022-08-07T19:31:02.072Z,17.12
2022-08-07T19:34:48.088Z,17.00
2022-08-07T19:39:57.830Z,16.82
2022-08-07T19:46:07.142Z,16.79
2022-08-07T20:08:21.590Z,16.06
2022-08-07T20:20:01.927Z,15.82
2022-08-07T20:26:20.405Z,15.79
2022-08-07T20:47:58.314Z,15.26
2022-08-07T20:53:08.766Z,15.21
2022-08-07T20:58:53.121Z,15.18
2022-08-07T21:10:46.400Z,15.00
2022-08-07T21:16:14.783Z,14.81
2022-08-07T21:27:40.118Z,14.56
2022-08-07T21:33:45.062Z,14.33
2022-08-07T21:38:56.299Z,14.24
2022-08-07T21:44:30.287Z,14.27
2022-08-07T21:55:30.512Z,14.14
2022-08-07T22:06:37.842Z,14.24
2022-08-07T22:12:05.544Z,14.09
2022-08-07T22:17:12.066Z,14.02
2022-08-07T22:22:27.909Z,13.96
2022-08-07T22:28:29.611Z,13.98
2022-08-07T22:33:06.181Z,14.11
2022-08-07T22:38:13.294Z,14.04
2022-08-07T22:43:37.171Z,13.94
2022-08-07T22:49:02.304Z,13.87
2022-08-07T22:54:39.716Z,13.83
2022-08-07T23:00:07.430Z,13.83
2022-08-07T23:06:09.122Z,13.71
2022-08-07T23:11:08.563Z,13.64
2022-08-07T23:16:44.668Z,13.58
2022-08-07T23:21:53.674Z,13.57
2022-08-07T23:27:33.810Z,13.57
2022-08-07T23:34:34.331Z,13.53
2022-08-07T23:38:36.726Z,13.47
2022-08-07T23:43:58.602Z,13.44
2022-08-07T23:49:08.471Z,13.35
2022-08-07T23:54:19.535Z,13.34
